Cleveland, Ohio
Traffic Map
Current Weather Conditions
Cleveland, Ohio
Few Clouds
Few Clouds
78°
Feels Like: 81°
Wind Chill: 78° Ceiling: Unl
Heat Index: 81° Visibility: 10mi
Dew Point: 73° Wind: 12mph
Humidity: 84% Direction: 280° (W)
Pressure: 30.02in Gusts: 0mph
Raw Report DataKBKL 260453Z 28010KT 10SM FEW060 26/23 A3002 RMK AO2 SLP161 T02560228 403440228
Traffic Incident Summary
Active as of:
Severity:
Category:
InformationThere was an issue retrieving the traffic information for this location. Please try a different location or try again shortly.
Advertisements
Track Severe Weather on mobile